createdAt,value
2018-05-13T00:00:56.038Z,100603.64
2018-05-13T00:03:24.368Z,100598.97
2018-05-13T00:05:52.721Z,100598.95
2018-05-13T00:08:21.057Z,100596.33
2018-05-13T00:10:49.415Z,100598.52
2018-05-13T00:13:17.740Z,100599.96
2018-05-13T00:15:46.091Z,100600.81
2018-05-13T00:18:14.436Z,100599.48
2018-05-13T00:20:42.788Z,100587.02
2018-05-13T00:23:11.121Z,100589.20
2018-05-13T00:25:39.472Z,100587.02
2018-05-13T00:28:07.809Z,100591.79
2018-05-13T00:30:36.172Z,100585.34
2018-05-13T00:33:04.505Z,100590.51
2018-05-13T00:35:32.934Z,100593.94
2018-05-13T00:38:01.194Z,100587.11
2018-05-13T00:40:29.549Z,100585.82
2018-05-13T00:42:57.881Z,100589.30
2018-05-13T00:45:26.242Z,100584.58
2018-05-13T00:47:54.572Z,100584.58
2018-05-13T00:50:22.934Z,100583.73
2018-05-13T00:52:51.265Z,100580.23
2018-05-13T00:55:19.621Z,100575.94
2018-05-13T00:57:47.948Z,100576.84
2018-05-13T01:00:16.309Z,100578.99
2018-05-13T01:02:44.673Z,100578.65
2018-05-13T01:05:12.972Z,100575.69
2018-05-13T01:07:41.334Z,100575.25
2018-05-13T01:10:09.674Z,100576.16
2018-05-13T01:12:38.020Z,100573.11
2018-05-13T01:15:06.359Z,100574.36
2018-05-13T01:17:34.708Z,100573.10
2018-05-13T01:20:03.044Z,100571.04
2018-05-13T01:22:31.398Z,100569.72
2018-05-13T01:24:59.732Z,100560.27
2018-05-13T01:27:28.085Z,100559.45
2018-05-13T01:29:56.415Z,100556.48
2018-05-13T01:32:24.775Z,100550.94
2018-05-13T01:34:53.106Z,100551.80
2018-05-13T01:37:21.462Z,100541.14
2018-05-13T01:39:49.792Z,100541.18
2018-05-13T01:42:18.144Z,100544.58
2018-05-13T01:44:46.485Z,100549.73
2018-05-13T01:47:14.847Z,100548.41
2018-05-13T01:49:43.184Z,100548.87
2018-05-13T01:52:11.536Z,100544.58
2018-05-13T01:54:39.868Z,100549.69
2018-05-13T01:57:08.221Z,100550.98
2018-05-13T01:59:36.561Z,100544.10
2018-05-13T02:02:04.917Z,100547.94
2018-05-13T02:04:33.247Z,100546.65
2018-05-13T02:07:01.601Z,100540.39
2018-05-13T02:09:29.936Z,100541.25
2018-05-13T02:11:58.284Z,100541.68
2018-05-13T02:14:26.615Z,100539.53
2018-05-13T02:16:54.985Z,100538.73
2018-05-13T02:19:23.316Z,100541.77
2018-05-13T02:21:51.672Z,100540.88
2018-05-13T02:24:20.009Z,100538.31
2018-05-13T02:26:48.376Z,100537.91
2018-05-13T02:29:16.697Z,100534.51
2018-05-13T02:31:45.046Z,100532.80
2018-05-13T02:34:13.385Z,100535.80
2018-05-13T02:36:41.741Z,100527.58
2018-05-13T02:39:10.073Z,100537.99
2018-05-13T02:41:38.425Z,100523.81
2018-05-13T02:44:06.753Z,100527.27
2018-05-13T02:46:35.105Z,100525.58
2018-05-13T02:49:03.437Z,100526.47
2018-05-13T02:51:31.793Z,100526.04
2018-05-13T02:54:00.130Z,100521.74
2018-05-13T02:56:28.480Z,100519.14
2018-05-13T02:58:56.809Z,100521.34
2018-05-13T03:01:25.171Z,100522.69
2018-05-13T03:03:53.529Z,100522.70
2018-05-13T03:06:21.856Z,100517.53
2018-05-13T03:08:50.545Z,100516.22
2018-05-13T03:11:18.878Z,100511.95
2018-05-13T03:13:47.227Z,100514.96
2018-05-13T03:16:15.562Z,100517.48
2018-05-13T03:18:43.916Z,100516.22
2018-05-13T03:21:12.249Z,100521.79
2018-05-13T03:23:40.634Z,100514.50
2018-05-13T03:26:08.960Z,100522.65
2018-05-13T03:28:37.321Z,100515.80
2018-05-13T03:31:05.662Z,100515.80
2018-05-13T03:33:34.041Z,100519.22
2018-05-13T03:36:02.368Z,100517.53
2018-05-13T03:38:30.725Z,100514.57
2018-05-13T03:40:59.056Z,100517.55
2018-05-13T03:43:27.409Z,100514.98
2018-05-13T03:45:55.749Z,100511.13
2018-05-13T03:48:24.109Z,100516.28
2018-05-13T03:50:52.440Z,100518.41
2018-05-13T03:53:20.801Z,100513.72
2018-05-13T03:55:49.134Z,100515.00
2018-05-13T03:58:17.484Z,100504.73
2018-05-13T04:00:45.817Z,100513.28
2018-05-13T04:03:14.168Z,100508.56
2018-05-13T04:05:42.504Z,100511.14
2018-05-13T04:11:33.533Z,100510.30
2018-05-13T04:14:13.520Z,100508.58
2018-05-13T04:16:41.854Z,100511.57
2018-05-13T04:19:10.200Z,100513.28
2018-05-13T04:21:38.537Z,100509.84
2018-05-13T04:24:06.889Z,100505.07
2018-05-13T04:26:35.229Z,100502.50
2018-05-13T04:29:03.584Z,100497.78
2018-05-13T04:31:31.928Z,100501.61
2018-05-13T04:34:00.281Z,100499.87
2018-05-13T04:36:28.613Z,100496.90
2018-05-13T04:38:56.965Z,100495.15
2018-05-13T04:41:25.292Z,100496.86
2018-05-13T04:43:53.665Z,100490.80
2018-05-13T04:46:22.071Z,100493.80
2018-05-13T04:48:50.360Z,100489.05
2018-05-13T04:51:18.699Z,100494.17
2018-05-13T04:53:47.060Z,100491.63
2018-05-13T04:56:15.397Z,100491.59
2018-05-13T04:58:43.745Z,100497.11
2018-05-13T05:01:12.079Z,100494.53
2018-05-13T05:03:40.428Z,100498.79
2018-05-13T05:06:08.765Z,100502.29
2018-05-13T05:08:37.122Z,100497.53
2018-05-13T05:11:05.451Z,100503.08
2018-05-13T05:13:33.809Z,100502.25
2018-05-13T05:16:02.140Z,100499.18
2018-05-13T05:18:30.496Z,100504.76
2018-05-13T05:20:58.834Z,100500.00
2018-05-13T05:23:27.193Z,100493.98
2018-05-13T05:25:55.524Z,100498.23
2018-05-13T05:28:23.876Z,100501.20
2018-05-13T05:30:52.217Z,100499.45
2018-05-13T05:33:20.586Z,100504.13
2018-05-13T05:35:48.996Z,100504.84
2018-05-13T05:38:17.273Z,100502.55
2018-05-13T05:40:45.620Z,100502.92
2018-05-13T05:43:13.973Z,100500.34
2018-05-13T05:45:42.309Z,100499.77
2018-05-13T05:48:10.661Z,100501.74
2018-05-13T05:50:38.997Z,100505.39
2018-05-13T05:53:07.357Z,100503.89
2018-05-13T05:55:35.692Z,100501.03
2018-05-13T05:58:04.041Z,100500.69
2018-05-13T06:00:32.388Z,100500.97
2018-05-13T06:03:00.729Z,100501.58
2018-05-13T06:05:29.088Z,100498.83
2018-05-13T06:07:57.419Z,100501.23
2018-05-13T06:10:25.774Z,100502.36
2018-05-13T06:12:54.109Z,100501.31
2018-05-13T06:15:22.465Z,100499.86
2018-05-13T06:17:50.800Z,100505.69
2018-05-13T06:20:19.153Z,100498.15
2018-05-13T06:22:47.489Z,100507.02
2018-05-13T06:25:15.925Z,100500.40
2018-05-13T06:27:44.166Z,100496.95
2018-05-13T06:30:12.523Z,100501.27
2018-05-13T06:32:40.857Z,100496.91
2018-05-13T06:35:09.214Z,100501.85
2018-05-13T06:37:37.555Z,100508.59
2018-05-13T06:40:05.905Z,100504.22
2018-05-13T06:42:34.243Z,100501.08
2018-05-13T06:45:02.593Z,100498.19
2018-05-13T06:47:30.924Z,100501.31
2018-05-13T06:49:59.277Z,100501.95
2018-05-13T06:52:27.617Z,100501.66
2018-05-13T06:54:55.983Z,100500.02
2018-05-13T06:57:24.393Z,100507.73
2018-05-13T06:59:53.281Z,100500.13
2018-05-13T07:02:21.621Z,100501.87
2018-05-13T07:04:49.981Z,100513.30
2018-05-13T07:07:18.317Z,100510.20
2018-05-13T07:09:46.676Z,100506.72
2018-05-13T07:12:15.009Z,100505.56
2018-05-13T07:14:43.365Z,100502.50
2018-05-13T07:17:11.702Z,100499.24
2018-05-13T07:19:40.088Z,100493.64
2018-05-13T07:22:08.428Z,100493.98
2018-05-13T07:24:36.786Z,100489.57
2018-05-13T07:27:05.124Z,100486.23
2018-05-13T07:29:33.484Z,100482.89
2018-05-13T07:32:01.816Z,100480.80
2018-05-13T07:34:30.191Z,100480.29
2018-05-13T07:36:58.528Z,100482.05
2018-05-13T07:39:27.624Z,100478.20
2018-05-13T07:41:55.958Z,100478.55
2018-05-13T07:44:24.324Z,100475.55
2018-05-13T07:46:52.666Z,100473.39
2018-05-13T07:49:21.031Z,100475.41
2018-05-13T07:51:49.368Z,100475.42
2018-05-13T07:54:17.724Z,100475.69
2018-05-13T07:56:46.060Z,100480.31
2018-05-13T07:59:14.410Z,100477.00
2018-05-13T08:01:42.760Z,100480.67
2018-05-13T08:04:11.101Z,100475.52
2018-05-13T08:06:39.672Z,100481.13
2018-05-13T08:09:08.151Z,100482.45
2018-05-13T08:11:36.831Z,100483.72
2018-05-13T08:14:05.280Z,100477.78
2018-05-13T08:16:33.990Z,100481.97
2018-05-13T08:19:03.392Z,100478.09
2018-05-13T08:21:31.748Z,100478.44
2018-05-13T08:24:00.076Z,100480.57
2018-05-13T08:26:28.441Z,100475.33
2018-05-13T08:28:56.773Z,100474.26
2018-05-13T08:31:25.132Z,100473.52
2018-05-13T08:33:53.472Z,100470.41
2018-05-13T08:36:21.841Z,100475.16
2018-05-13T08:38:50.513Z,100471.27
2018-05-13T08:41:18.869Z,100477.30
2018-05-13T08:43:47.208Z,100469.70
2018-05-13T08:46:15.578Z,100463.69
2018-05-13T08:48:43.918Z,100473.12
2018-05-13T08:51:12.275Z,100468.24
2018-05-13T08:53:40.608Z,100469.66
2018-05-13T08:56:08.993Z,100466.45
2018-05-13T08:58:37.369Z,100464.45
2018-05-13T09:01:05.731Z,100464.14
2018-05-13T09:03:34.069Z,100474.70
2018-05-13T09:06:02.433Z,100470.63
2018-05-13T09:08:30.829Z,100473.27
2018-05-13T09:10:59.133Z,100467.28
2018-05-13T09:13:27.590Z,100464.61
2018-05-13T09:15:55.949Z,100458.93
2018-05-13T09:18:24.972Z,100456.88
2018-05-13T09:20:53.344Z,100450.73
2018-05-13T09:23:21.672Z,100447.78
2018-05-13T09:25:52.957Z,100441.11
2018-05-13T09:28:21.307Z,100444.37
2018-05-13T09:30:49.670Z,100435.55
2018-05-13T09:33:18.017Z,100437.36
2018-05-13T09:35:46.385Z,100430.07
2018-05-13T09:38:14.726Z,100430.88
2018-05-13T09:40:43.085Z,100422.01
2018-05-13T09:43:11.425Z,100421.00
2018-05-13T09:45:39.954Z,100424.66
2018-05-13T09:48:08.285Z,100420.29
2018-05-13T09:50:36.645Z,100421.83
2018-05-13T09:53:04.989Z,100421.42
2018-05-13T09:55:33.371Z,100423.52
2018-05-13T09:58:01.722Z,100422.09
2018-05-13T10:00:30.091Z,100414.98
2018-05-13T10:02:58.439Z,100418.38
2018-05-13T10:05:26.783Z,100423.31
2018-05-13T10:07:55.142Z,100412.45
2018-05-13T10:10:23.485Z,100404.94
2018-05-13T10:12:51.845Z,100406.71
2018-05-13T10:15:20.188Z,100400.63
2018-05-13T10:17:48.550Z,100396.47
2018-05-13T10:20:16.885Z,100396.55
2018-05-13T10:22:45.244Z,100401.98
2018-05-13T10:25:13.599Z,100397.19
2018-05-13T10:27:41.950Z,100396.59
2018-05-13T10:30:10.285Z,100388.67
2018-05-13T10:32:38.641Z,100392.16
2018-05-13T10:35:06.981Z,100396.23
2018-05-13T10:37:36.702Z,100389.13
2018-05-13T10:40:05.331Z,100390.06
2018-05-13T10:42:33.825Z,100390.67
2018-05-13T10:45:02.132Z,100389.16
2018-05-13T10:47:30.493Z,100387.36
2018-05-13T10:49:58.828Z,100383.70
2018-05-13T10:52:27.188Z,100380.28
2018-05-13T10:54:55.522Z,100377.69
2018-05-13T10:57:23.890Z,100378.55
2018-05-13T10:59:52.226Z,100375.61
2018-05-13T11:02:20.589Z,100368.99
2018-05-13T11:04:49.028Z,100369.42
2018-05-13T11:07:17.301Z,100360.84
2018-05-13T11:09:45.727Z,100359.62
2018-05-13T11:12:14.069Z,100362.02
2018-05-13T11:14:42.406Z,100353.30
2018-05-13T11:17:10.994Z,100350.02
2018-05-13T11:19:39.338Z,100346.17
2018-05-13T11:22:07.693Z,100346.94
2018-05-13T11:24:36.033Z,100346.48
2018-05-13T11:27:04.397Z,100342.70
2018-05-13T11:29:32.734Z,100341.86
2018-05-13T11:32:01.213Z,100340.52
2018-05-13T11:34:29.553Z,100348.20
2018-05-13T11:36:58.625Z,100341.58
2018-05-13T11:39:26.973Z,100344.16
2018-05-13T11:41:55.970Z,100337.09
2018-05-13T11:44:24.310Z,100334.62
2018-05-13T11:46:52.665Z,100336.31
2018-05-13T11:49:21.096Z,100334.27
2018-05-13T11:51:49.453Z,100332.95
2018-05-13T11:54:17.802Z,100328.56
2018-05-13T11:56:46.163Z,100329.94
2018-05-13T11:59:14.500Z,100328.87
2018-05-13T12:01:42.853Z,100319.58
2018-05-13T12:04:11.198Z,100318.92
2018-05-13T12:06:39.566Z,100324.11
2018-05-13T12:09:07.900Z,100319.47
2018-05-13T12:11:36.245Z,100317.55
2018-05-13T12:14:04.605Z,100314.65
2018-05-13T12:16:33.052Z,100308.78
2018-05-13T12:19:01.474Z,100315.19
2018-05-13T12:21:29.749Z,100303.06
2018-05-13T12:23:58.117Z,100300.00
2018-05-13T12:26:26.464Z,100299.61
2018-05-13T12:28:54.857Z,100298.30
2018-05-13T12:31:23.186Z,100295.73
2018-05-13T12:33:51.553Z,100285.75
2018-05-13T12:36:19.893Z,100285.97
2018-05-13T12:38:48.253Z,100281.64
2018-05-13T12:41:16.584Z,100281.98
2018-05-13T12:43:44.948Z,100288.14
2018-05-13T12:46:13.289Z,100279.46
2018-05-13T12:48:41.648Z,100278.34
2018-05-13T12:51:09.994Z,100282.73
2018-05-13T12:53:38.352Z,100280.63
2018-05-13T12:56:07.849Z,100279.84
2018-05-13T12:58:36.207Z,100280.49
2018-05-13T13:01:04.554Z,100274.42
2018-05-13T13:03:32.902Z,100272.66
2018-05-13T13:06:01.261Z,100274.77
2018-05-13T13:08:29.654Z,100268.80
2018-05-13T13:10:57.952Z,100263.00
2018-05-13T13:13:26.312Z,100260.89
2018-05-13T13:15:54.648Z,100264.63
2018-05-13T13:18:23.949Z,100255.53
2018-05-13T13:20:52.293Z,100254.57
2018-05-13T13:23:20.652Z,100251.87
2018-05-13T13:25:49.010Z,100245.66
2018-05-13T13:28:17.360Z,100249.20
2018-05-13T13:30:45.780Z,100231.97
2018-05-13T13:33:14.071Z,100241.03
2018-05-13T13:35:42.409Z,100242.20
2018-05-13T13:38:10.773Z,100238.75
2018-05-13T13:40:39.118Z,100236.85
2018-05-13T13:43:07.487Z,100241.05
2018-05-13T13:45:35.849Z,100237.98
2018-05-13T13:48:04.201Z,100237.06
2018-05-13T13:50:32.540Z,100224.22
2018-05-13T13:53:00.916Z,100223.88
2018-05-13T13:55:29.969Z,100231.98
2018-05-13T13:57:58.379Z,100227.27
2018-05-13T14:00:26.748Z,100231.48
2018-05-13T14:02:55.110Z,100229.34
2018-05-13T14:05:23.485Z,100226.34
2018-05-13T14:07:51.846Z,100224.27
2018-05-13T14:10:20.179Z,100219.71
2018-05-13T14:12:48.505Z,100221.81
2018-05-13T14:15:16.928Z,100225.19
2018-05-13T14:17:45.276Z,100217.47
2018-05-13T14:20:13.948Z,100221.16
2018-05-13T14:22:43.049Z,100216.59
2018-05-13T14:25:12.601Z,100219.48
2018-05-13T14:27:41.488Z,100218.93
2018-05-13T14:30:10.836Z,100214.90
2018-05-13T14:32:39.540Z,100209.94
2018-05-13T14:35:08.146Z,100215.46
2018-05-13T14:37:36.827Z,100205.67
2018-05-13T14:40:05.389Z,100207.52
2018-05-13T14:42:34.620Z,100205.74
2018-05-13T14:45:03.220Z,100211.84
2018-05-13T14:47:31.772Z,100201.50
2018-05-13T14:50:00.347Z,100203.44
2018-05-13T14:52:28.841Z,100207.59
2018-05-13T14:54:57.359Z,100205.87
2018-05-13T14:57:25.848Z,100210.30
2018-05-13T14:59:54.532Z,100211.03
2018-05-13T15:02:23.019Z,100211.52
2018-05-13T15:04:52.469Z,100210.67
2018-05-13T15:07:29.903Z,100208.36
2018-05-13T15:09:58.633Z,100198.15
2018-05-13T15:12:27.308Z,100200.45
2018-05-13T15:14:55.736Z,100199.62
2018-05-13T15:17:24.270Z,100204.98
2018-05-13T15:19:52.975Z,100204.64
2018-05-13T15:22:36.202Z,100196.78
2018-05-13T15:25:04.765Z,100205.29
2018-05-13T15:27:33.291Z,100203.47
2018-05-13T15:30:01.929Z,100204.73
2018-05-13T15:32:30.421Z,100199.56
2018-05-13T15:34:59.193Z,100205.88
2018-05-13T15:37:27.709Z,100199.78
2018-05-13T15:39:56.178Z,100195.58
2018-05-13T15:42:24.700Z,100201.38
2018-05-13T15:44:53.738Z,100203.28
2018-05-13T15:47:22.137Z,100202.51
2018-05-13T15:49:50.487Z,100203.98
2018-05-13T15:52:18.812Z,100206.44
2018-05-13T15:54:47.839Z,100203.16
2018-05-13T15:57:16.169Z,100207.54
2018-05-13T15:59:44.521Z,100208.50
2018-05-13T16:02:12.853Z,100204.39
2018-05-13T16:04:41.200Z,100204.79
2018-05-13T16:07:09.533Z,100210.49
2018-05-13T16:09:37.889Z,100211.14
2018-05-13T16:12:06.228Z,100209.94
2018-05-13T16:14:35.561Z,100211.03
2018-05-13T16:17:03.891Z,100212.48
2018-05-13T16:19:32.232Z,100225.33
2018-05-13T16:22:00.556Z,100250.20
2018-05-13T16:24:28.908Z,100254.48
2018-05-13T16:26:57.257Z,100260.86
2018-05-13T16:29:25.671Z,100281.67
2018-05-13T16:31:53.988Z,100285.53
2018-05-13T16:34:23.096Z,100290.60
2018-05-13T16:36:51.432Z,100286.05
2018-05-13T16:39:19.793Z,100286.22
2018-05-13T16:41:48.121Z,100283.56
2018-05-13T16:44:16.460Z,100295.45
2018-05-13T16:46:44.821Z,100305.89
2018-05-13T16:49:13.161Z,100306.62
2018-05-13T16:51:41.521Z,100309.95
2018-05-13T16:54:10.616Z,100306.22
2018-05-13T16:56:38.972Z,100315.39
2018-05-13T16:59:07.315Z,100320.04
2018-05-13T17:01:35.724Z,100311.28
2018-05-13T17:04:04.015Z,100315.49
2018-05-13T17:06:32.372Z,100315.58
2018-05-13T17:09:00.717Z,100323.06
2018-05-13T17:11:29.076Z,100315.08
2018-05-13T17:13:57.421Z,100316.30
2018-05-13T17:16:25.781Z,100320.33
2018-05-13T17:18:54.121Z,100322.45
2018-05-13T17:21:22.478Z,100320.85
2018-05-13T17:23:50.816Z,100329.98
2018-05-13T17:26:19.183Z,100344.18
2018-05-13T17:28:47.518Z,100356.56
2018-05-13T17:31:15.907Z,100369.86
2018-05-13T17:33:44.227Z,100361.44
2018-05-13T17:36:12.585Z,100361.82
2018-05-13T17:38:40.929Z,100365.14
2018-05-13T17:41:09.321Z,100377.16
2018-05-13T17:43:37.632Z,100387.66
2018-05-13T17:46:05.993Z,100387.59
2018-05-13T17:48:34.322Z,100381.44
2018-05-13T17:51:02.673Z,100364.77
2018-05-13T17:53:31.030Z,100357.17
2018-05-13T17:55:59.355Z,100354.30
2018-05-13T17:58:27.672Z,100364.38
2018-05-13T18:00:56.061Z,100372.27
2018-05-13T18:03:24.368Z,100375.10
2018-05-13T18:05:52.718Z,100387.62
2018-05-13T18:08:21.056Z,100405.22
2018-05-13T18:10:49.397Z,100421.02
2018-05-13T18:13:17.781Z,100429.58
2018-05-13T18:15:46.124Z,100434.13
2018-05-13T18:18:14.449Z,100434.64
2018-05-13T18:20:42.806Z,100431.09
2018-05-13T18:23:11.128Z,100433.58
2018-05-13T18:25:39.481Z,100427.09
2018-05-13T18:28:07.898Z,100432.41
2018-05-13T18:30:36.189Z,100431.67
2018-05-13T18:33:04.521Z,100427.02
2018-05-13T18:35:32.864Z,100423.16
2018-05-13T18:38:01.193Z,100423.17
2018-05-13T18:40:30.336Z,100421.77
2018-05-13T18:42:58.665Z,100426.35
2018-05-13T18:45:27.049Z,100419.89
2018-05-13T18:47:55.393Z,100423.09
2018-05-13T18:50:23.880Z,100432.57
2018-05-13T18:52:52.102Z,100428.84
2018-05-13T18:55:20.436Z,100428.08
2018-05-13T18:57:48.800Z,100432.84
2018-05-13T19:00:17.438Z,100430.69
2018-05-13T19:02:45.797Z,100433.71
2018-05-13T19:05:14.136Z,100436.34
2018-05-13T19:07:42.493Z,100435.62
2018-05-13T19:10:10.833Z,100444.36
2018-05-13T19:12:39.201Z,100441.28
2018-05-13T19:15:07.528Z,100442.52
2018-05-13T19:17:35.897Z,100454.60
2018-05-13T19:20:04.966Z,100452.48
2018-05-13T19:22:33.354Z,100460.39
2018-05-13T19:25:01.677Z,100468.25
2018-05-13T19:27:30.037Z,100470.07
2018-05-13T19:29:58.379Z,100471.27
2018-05-13T19:32:26.741Z,100472.86
2018-05-13T19:34:55.083Z,100478.11
2018-05-13T19:37:23.437Z,100487.74
2018-05-13T19:39:52.698Z,100488.41
2018-05-13T19:42:21.059Z,100495.77
2018-05-13T19:44:49.392Z,100501.77
2018-05-13T19:47:17.753Z,100496.53
2018-05-13T19:49:46.107Z,100503.47
2018-05-13T19:52:14.449Z,100507.68
2018-05-13T19:54:42.788Z,100505.27
2018-05-13T19:57:11.143Z,100510.87
2018-05-13T19:59:40.225Z,100515.19
2018-05-13T20:02:08.585Z,100511.34
2018-05-13T20:04:36.921Z,100509.83
2018-05-13T20:07:05.286Z,100504.78
2018-05-13T20:09:33.665Z,100503.16
2018-05-13T20:12:01.979Z,100508.29
2018-05-13T20:14:30.321Z,100507.03
2018-05-13T20:16:58.681Z,100504.86
2018-05-13T20:19:27.017Z,100510.95
2018-05-13T20:21:55.374Z,100509.59
2018-05-13T20:24:23.711Z,100514.28
2018-05-13T20:26:52.105Z,100511.22
2018-05-13T20:29:20.444Z,100515.32
2018-05-13T20:31:48.801Z,100515.94
2018-05-13T20:34:17.145Z,100515.91
2018-05-13T20:36:45.504Z,100516.33
2018-05-13T20:39:14.568Z,100519.23
2018-05-13T20:41:42.924Z,100518.48
2018-05-13T20:44:11.341Z,100523.09
2018-05-13T20:46:39.625Z,100520.52
2018-05-13T20:49:07.961Z,100516.34
2018-05-13T20:51:36.300Z,100519.82
2018-05-13T20:54:04.670Z,100520.08
2018-05-13T20:56:33.017Z,100517.81
2018-05-13T20:59:02.293Z,100525.75
2018-05-13T21:01:30.581Z,100519.56
2018-05-13T21:03:58.941Z,100525.70
2018-05-13T21:06:27.276Z,100522.59
2018-05-13T21:08:55.642Z,100527.69
2018-05-13T21:11:23.989Z,100524.30
2018-05-13T21:13:52.344Z,100516.05
2018-05-13T21:16:20.682Z,100518.30
2018-05-13T21:18:49.838Z,100513.95
2018-05-13T21:21:18.173Z,100514.82
2018-05-13T21:23:46.537Z,100519.75
2018-05-13T21:26:14.880Z,100511.14
2018-05-13T21:28:43.249Z,100515.11
2018-05-13T21:31:11.591Z,100516.67
2018-05-13T21:33:39.957Z,100512.63
2018-05-13T21:36:08.297Z,100514.45
2018-05-13T21:38:36.672Z,100522.44
2018-05-13T21:41:05.009Z,100514.87
2018-05-13T21:43:33.370Z,100518.81
2018-05-13T21:46:01.697Z,100511.89
2018-05-13T21:48:30.055Z,100515.73
2018-05-13T21:50:58.384Z,100512.34
2018-05-13T21:53:26.737Z,100510.70
2018-05-13T21:55:55.073Z,100508.67
2018-05-13T21:58:23.424Z,100510.83
2018-05-13T22:00:51.757Z,100518.66
2018-05-13T22:03:20.116Z,100508.58
2018-05-13T22:05:48.449Z,100522.14
2018-05-13T22:08:16.802Z,100523.49
2018-05-13T22:10:45.141Z,100526.74
2018-05-13T22:13:13.497Z,100527.09
2018-05-13T22:15:41.825Z,100521.19
2018-05-13T22:18:10.181Z,100518.61
2018-05-13T22:20:38.508Z,100517.12
2018-05-13T22:23:06.864Z,100510.98
2018-05-13T22:25:35.243Z,100513.02
2018-05-13T22:28:03.561Z,100513.09
2018-05-13T22:30:31.884Z,100513.45
2018-05-13T22:33:00.245Z,100510.86
2018-05-13T22:35:28.577Z,100505.13
2018-05-13T22:37:56.933Z,100512.52
2018-05-13T22:40:25.268Z,100502.47
2018-05-13T22:42:53.616Z,100502.97
2018-05-13T22:45:21.953Z,100501.83
2018-05-13T22:47:50.306Z,100504.09
2018-05-13T22:50:18.637Z,100507.91
2018-05-13T22:52:46.981Z,100500.25
2018-05-13T22:55:15.332Z,100498.13
2018-05-13T22:57:43.673Z,100500.22
2018-05-13T23:00:12.030Z,100501.02
2018-05-13T23:02:40.365Z,100493.14
2018-05-13T23:05:08.716Z,100493.30
2018-05-13T23:07:37.054Z,100491.66
2018-05-13T23:10:05.409Z,100490.92
2018-05-13T23:12:33.746Z,100491.71
2018-05-13T23:15:02.096Z,100493.06
2018-05-13T23:17:30.432Z,100491.83
2018-05-13T23:19:58.780Z,100488.47
2018-05-13T23:22:34.813Z,100492.28
2018-05-13T23:25:03.161Z,100482.88
2018-05-13T23:27:31.488Z,100484.23
2018-05-13T23:29:59.841Z,100482.51
2018-05-13T23:32:28.180Z,100482.62
2018-05-13T23:34:56.537Z,100482.57
2018-05-13T23:37:24.869Z,100479.28
2018-05-13T23:39:53.216Z,100476.33
2018-05-13T23:42:21.553Z,100481.11
2018-05-13T23:44:49.904Z,100483.36
2018-05-13T23:47:18.233Z,100483.69
2018-05-13T23:49:46.592Z,100486.31
2018-05-13T23:52:14.926Z,100476.48
2018-05-13T23:54:43.277Z,100482.94
2018-05-13T23:57:11.624Z,100482.55
2018-05-13T23:59:39.982Z,100480.87
